createdAt,value
2019-05-05T00:00:04.871Z,5.39
2019-05-05T00:03:24.901Z,5.44
2019-05-05T00:06:28.531Z,5.43
2019-05-05T00:09:34.755Z,5.46
2019-05-05T00:12:50.861Z,5.55
2019-05-05T00:16:12.764Z,5.54
2019-05-05T00:19:29.838Z,5.37
2019-05-05T00:22:24.550Z,5.31
2019-05-05T00:25:28.455Z,5.04
2019-05-05T00:28:32.324Z,4.78
2019-05-05T00:31:36.276Z,4.63
2019-05-05T00:34:40.607Z,4.44
2019-05-05T00:37:45.127Z,4.41
2019-05-05T00:40:49.041Z,4.42
2019-05-05T00:43:55.212Z,4.33
2019-05-05T00:47:14.516Z,4.45
2019-05-05T00:50:20.222Z,4.49
2019-05-05T00:53:25.097Z,4.49
2019-05-05T00:56:29.035Z,4.50
2019-05-05T00:59:34.808Z,4.54
2019-05-05T01:02:47.968Z,4.67
2019-05-05T01:06:20.044Z,4.66
2019-05-05T01:09:26.233Z,4.74
2019-05-05T01:12:30.356Z,4.69
2019-05-05T01:15:34.591Z,4.66
2019-05-05T01:18:38.436Z,4.44
2019-05-05T01:21:42.553Z,4.33
2019-05-05T01:24:47.149Z,4.19
2019-05-05T01:27:51.334Z,4.10
2019-05-05T01:30:59.152Z,4.00
2019-05-05T01:34:11.536Z,4.04
2019-05-05T01:37:22.939Z,3.96
2019-05-05T01:40:35.608Z,3.93
2019-05-05T01:43:39.891Z,3.89
2019-05-05T01:46:44.488Z,3.91
2019-05-05T01:49:48.653Z,3.91
2019-05-05T01:52:52.887Z,3.76
2019-05-05T01:55:57.620Z,3.76
2019-05-05T01:59:01.740Z,3.80
2019-05-05T02:02:05.993Z,3.70
2019-05-05T02:05:10.198Z,3.63
2019-05-05T02:08:15.344Z,3.60
2019-05-05T02:11:19.407Z,3.66
2019-05-05T02:14:24.689Z,3.53
2019-05-05T02:17:28.652Z,3.44
2019-05-05T02:21:05.180Z,3.45
2019-05-05T02:24:10.072Z,3.39
2019-05-05T02:27:14.711Z,3.34
2019-05-05T02:30:35.895Z,3.36
2019-05-05T02:33:39.379Z,3.44
2019-05-05T02:36:45.967Z,3.67
2019-05-05T02:39:57.899Z,3.69
2019-05-05T02:42:56.165Z,3.88
2019-05-05T02:46:09.906Z,3.98
2019-05-05T02:49:15.435Z,3.94
2019-05-05T02:52:24.420Z,3.97
2019-05-05T02:55:27.788Z,3.94
2019-05-05T02:58:34.741Z,3.96
2019-05-05T03:01:46.677Z,4.02
2019-05-05T03:04:53.648Z,4.07
2019-05-05T03:07:58.647Z,4.05
2019-05-05T03:11:04.069Z,3.74
2019-05-05T03:14:10.660Z,3.54
2019-05-05T03:17:15.349Z,3.39
2019-05-05T03:20:19.406Z,3.23
2019-05-05T03:23:24.019Z,3.19
2019-05-05T03:26:29.075Z,3.09
2019-05-05T03:29:33.659Z,3.01
2019-05-05T03:32:38.182Z,2.98
2019-05-05T03:35:43.639Z,2.86
2019-05-05T03:38:48.061Z,2.96
2019-05-05T03:42:14.679Z,2.93
2019-05-05T03:45:23.668Z,2.95
2019-05-05T03:48:28.146Z,2.96
2019-05-05T03:51:34.527Z,2.83
2019-05-05T03:54:38.568Z,2.75
2019-05-05T03:57:44.495Z,2.67
2019-05-05T04:01:20.471Z,2.66
2019-05-05T04:04:29.381Z,2.69
2019-05-05T04:07:33.551Z,2.77
2019-05-05T04:10:38.652Z,2.87
2019-05-05T04:13:43.779Z,2.86
2019-05-05T04:17:19.032Z,2.83
2019-05-05T04:20:35.256Z,2.86
2019-05-05T04:23:39.490Z,2.89
2019-05-05T04:26:44.033Z,2.78
2019-05-05T04:29:48.048Z,2.76
2019-05-05T04:32:51.892Z,2.78
2019-05-05T04:35:55.942Z,2.79
2019-05-05T04:39:00.342Z,2.82
2019-05-05T04:42:04.923Z,2.81
2019-05-05T04:45:09.094Z,2.83
2019-05-05T04:48:35.077Z,2.86
2019-05-05T04:51:49.527Z,2.94
2019-05-05T04:54:51.197Z,2.99
2019-05-05T04:57:55.090Z,3.08
2019-05-05T05:00:59.208Z,3.10
2019-05-05T05:04:24.972Z,3.14
2019-05-05T05:07:28.837Z,3.22
2019-05-05T05:10:34.572Z,3.36
2019-05-05T05:13:39.383Z,3.46
2019-05-05T05:16:43.790Z,3.48
2019-05-05T05:19:47.996Z,3.47
2019-05-05T05:22:51.856Z,3.58
2019-05-05T05:25:56.108Z,3.73
2019-05-05T05:29:00.499Z,3.74
2019-05-05T05:32:04.399Z,3.89
2019-05-05T05:35:08.784Z,3.91
2019-05-05T05:38:14.025Z,4.00
2019-05-05T05:41:37.146Z,3.93
2019-05-05T05:45:00.019Z,3.94
2019-05-05T05:48:14.962Z,4.21
2019-05-05T05:51:21.106Z,4.27
2019-05-05T05:54:24.961Z,4.39
2019-05-05T05:57:28.876Z,4.42
2019-05-05T06:00:34.400Z,4.39
2019-05-05T06:03:38.427Z,4.42
2019-05-05T06:06:43.905Z,4.55
2019-05-05T06:09:48.226Z,4.58
2019-05-05T06:12:54.140Z,4.62
2019-05-05T06:15:58.420Z,4.56
2019-05-05T06:19:03.625Z,4.65
2019-05-05T06:22:08.567Z,4.65
2019-05-05T06:25:15.902Z,4.63
2019-05-05T06:28:18.112Z,4.89
2019-05-05T06:31:21.905Z,5.04
2019-05-05T06:34:26.292Z,5.15
2019-05-05T06:37:30.518Z,5.14
2019-05-05T06:40:46.368Z,5.11
2019-05-05T06:44:19.850Z,5.10
2019-05-05T06:47:28.087Z,5.16
2019-05-05T06:50:31.863Z,5.21
2019-05-05T06:53:35.849Z,5.34
2019-05-05T06:56:40.021Z,5.61
2019-05-05T06:59:44.051Z,5.64
2019-05-05T07:02:47.881Z,5.50
2019-05-05T07:05:53.935Z,5.52
2019-05-05T07:08:57.832Z,5.39
2019-05-05T07:12:01.850Z,5.54
2019-05-05T07:15:05.967Z,5.62
2019-05-05T07:18:10.301Z,5.66
2019-05-05T07:21:14.662Z,5.77
2019-05-05T07:24:19.019Z,6.04
2019-05-05T07:27:24.317Z,6.19
2019-05-05T07:30:28.718Z,6.26
2019-05-05T07:33:34.650Z,6.41
2019-05-05T07:36:45.245Z,6.41
2019-05-05T07:39:49.574Z,6.52
2019-05-05T07:42:54.054Z,6.69
2019-05-05T07:45:57.957Z,6.67
2019-05-05T07:49:03.743Z,6.69
2019-05-05T07:52:07.679Z,6.62
2019-05-05T07:55:14.222Z,6.60
2019-05-05T07:58:17.887Z,6.75
2019-05-05T08:01:21.956Z,6.98
2019-05-05T08:04:25.862Z,7.06
2019-05-05T08:07:29.959Z,7.20
2019-05-05T08:10:34.473Z,7.37
2019-05-05T08:13:38.777Z,7.40
2019-05-05T08:17:03.742Z,7.37
2019-05-05T08:20:14.172Z,7.57
2019-05-05T08:23:35.520Z,7.52
2019-05-05T08:26:46.770Z,7.44
2019-05-05T08:29:54.330Z,7.73
2019-05-05T08:32:58.414Z,8.04
2019-05-05T08:36:04.618Z,8.08
2019-05-05T08:39:08.610Z,8.18
2019-05-05T08:42:14.388Z,8.41
2019-05-05T08:45:18.260Z,8.48
2019-05-05T08:48:24.515Z,8.64
2019-05-05T08:51:27.756Z,8.57
2019-05-05T08:54:31.829Z,8.80
2019-05-05T08:57:35.739Z,8.72
2019-05-05T09:00:39.662Z,8.79
2019-05-05T09:03:44.460Z,8.52
2019-05-05T09:06:48.433Z,8.61
2019-05-05T09:09:54.494Z,8.64
2019-05-05T09:12:58.003Z,8.61
2019-05-05T09:16:03.736Z,9.05
2019-05-05T09:19:14.525Z,9.13
2019-05-05T09:22:17.814Z,9.30
2019-05-05T09:25:40.736Z,9.35
2019-05-05T09:29:09.675Z,9.35
2019-05-05T09:32:14.149Z,9.49
2019-05-05T09:35:18.069Z,9.58
2019-05-05T09:38:23.858Z,9.45
2019-05-05T09:41:27.770Z,9.57
2019-05-05T09:44:31.783Z,9.49
2019-05-05T09:47:35.606Z,9.61
2019-05-05T09:50:39.495Z,9.79
2019-05-05T09:53:44.810Z,9.63
2019-05-05T09:56:48.938Z,9.95
2019-05-05T09:59:55.397Z,10.16
2019-05-05T10:02:59.582Z,10.05
2019-05-05T10:06:05.024Z,9.65
2019-05-05T10:09:11.140Z,9.86
2019-05-05T10:12:15.088Z,9.89
2019-05-05T10:15:19.269Z,9.70
2019-05-05T10:18:25.386Z,10.12
2019-05-05T10:21:29.130Z,10.11
2019-05-05T10:24:37.905Z,9.97
2019-05-05T10:27:47.384Z,9.75
2019-05-05T10:30:48.240Z,9.72
2019-05-05T10:33:56.456Z,9.79
2019-05-05T10:37:00.322Z,10.11
2019-05-05T10:40:05.460Z,10.25
2019-05-05T10:43:09.321Z,10.58
2019-05-05T10:46:14.378Z,10.41
2019-05-05T10:49:19.197Z,9.89
2019-05-05T10:52:23.008Z,9.78
2019-05-05T10:55:26.913Z,9.92
2019-05-05T10:58:30.726Z,9.82
2019-05-05T11:01:34.832Z,10.14
2019-05-05T11:04:38.741Z,10.19
2019-05-05T11:07:43.132Z,9.94
2019-05-05T11:10:47.189Z,10.19
2019-05-05T11:13:51.070Z,10.69
2019-05-05T11:16:55.353Z,10.63
2019-05-05T11:19:59.290Z,10.49
2019-05-05T11:23:04.857Z,10.16
2019-05-05T11:26:08.722Z,10.22
2019-05-05T11:29:13.558Z,10.05
2019-05-05T11:32:36.862Z,10.70
2019-05-05T11:35:56.770Z,11.03
2019-05-05T11:39:00.880Z,10.87
2019-05-05T11:42:04.758Z,10.77
2019-05-05T11:45:08.735Z,10.62
2019-05-05T11:48:14.573Z,10.37
2019-05-05T11:51:18.535Z,10.40
2019-05-05T11:54:24.338Z,10.60
2019-05-05T11:57:27.910Z,10.85
2019-05-05T12:00:31.835Z,10.83
2019-05-05T12:03:37.811Z,10.91
2019-05-05T12:06:41.511Z,11.23
2019-05-05T12:09:54.860Z,11.08
2019-05-05T12:12:59.191Z,10.93
2019-05-05T12:16:05.214Z,10.71
2019-05-05T12:19:13.763Z,10.43
2019-05-05T12:22:17.727Z,10.76
2019-05-05T12:25:39.002Z,10.54
2019-05-05T12:28:49.517Z,10.20
2019-05-05T12:31:53.843Z,10.15
2019-05-05T12:34:58.109Z,10.16
2019-05-05T12:38:02.251Z,10.35
2019-05-05T12:41:06.191Z,10.25
2019-05-05T12:44:14.254Z,10.33
2019-05-05T12:47:29.987Z,10.32
2019-05-05T12:50:34.102Z,10.95
2019-05-05T12:53:38.014Z,11.55
2019-05-05T12:56:43.963Z,11.31
2019-05-05T12:59:47.717Z,11.04
2019-05-05T13:02:53.694Z,10.74
2019-05-05T13:05:57.291Z,10.91
2019-05-05T13:09:01.428Z,10.88
2019-05-05T13:12:05.629Z,11.06
2019-05-05T13:15:09.702Z,10.99
2019-05-05T13:18:14.048Z,11.04
2019-05-05T13:21:27.857Z,10.99
2019-05-05T13:24:54.067Z,10.64
2019-05-05T13:27:58.298Z,10.54
2019-05-05T13:31:02.180Z,10.49
2019-05-05T13:34:06.500Z,10.59
2019-05-05T13:37:10.662Z,10.78
2019-05-05T13:40:14.659Z,10.84
2019-05-05T13:43:18.571Z,10.75
2019-05-05T13:46:30.039Z,10.73
2019-05-05T13:49:38.208Z,10.74
2019-05-05T13:52:44.201Z,10.90
2019-05-05T13:55:48.099Z,11.06
2019-05-05T13:58:52.205Z,11.32
2019-05-05T14:01:56.463Z,11.92
2019-05-05T14:05:00.292Z,12.17
2019-05-05T14:08:04.366Z,12.05
2019-05-05T14:11:08.607Z,11.82
2019-05-05T14:14:13.793Z,12.23
2019-05-05T14:17:18.507Z,11.99
2019-05-05T14:20:23.979Z,11.60
2019-05-05T14:23:29.206Z,11.38
2019-05-05T14:26:35.322Z,11.50
2019-05-05T14:29:53.098Z,11.51
2019-05-05T14:32:57.172Z,11.43
2019-05-05T14:36:19.000Z,11.39
2019-05-05T14:39:23.914Z,11.13
2019-05-05T14:42:28.009Z,11.21
2019-05-05T14:45:34.001Z,11.32
2019-05-05T14:48:38.033Z,10.91
2019-05-05T14:51:41.933Z,11.10
2019-05-05T14:54:46.083Z,10.97
2019-05-05T14:57:50.614Z,10.94
2019-05-05T15:00:54.750Z,10.91
2019-05-05T15:03:58.838Z,10.93
2019-05-05T15:07:10.803Z,10.99
2019-05-05T15:10:34.340Z,11.21
2019-05-05T15:13:38.443Z,11.32
2019-05-05T15:16:43.757Z,11.09
2019-05-05T15:19:47.675Z,11.39
2019-05-05T15:22:51.465Z,11.62
2019-05-05T15:25:55.597Z,11.42
2019-05-05T15:29:01.703Z,11.28
2019-05-05T15:32:05.986Z,11.89
2019-05-05T15:35:10.367Z,11.77
2019-05-05T15:38:14.342Z,11.73
2019-05-05T15:41:18.247Z,11.66
2019-05-05T15:44:24.137Z,11.62
2019-05-05T15:47:28.680Z,11.40
2019-05-05T15:50:32.903Z,11.32
2019-05-05T15:53:36.708Z,11.12
2019-05-05T15:56:41.068Z,10.98
2019-05-05T15:59:44.938Z,11.08
2019-05-05T16:02:48.839Z,11.15
2019-05-05T16:05:54.343Z,11.70
2019-05-05T16:08:58.355Z,11.85
2019-05-05T16:12:03.776Z,12.18
2019-05-05T16:15:21.904Z,12.44
2019-05-05T16:18:33.808Z,12.70
2019-05-05T16:21:47.981Z,13.05
2019-05-05T16:25:13.803Z,12.60
2019-05-05T16:28:17.398Z,12.41
2019-05-05T16:31:23.604Z,12.14
2019-05-05T16:34:27.844Z,12.00
2019-05-05T16:37:33.509Z,11.89
2019-05-05T16:40:37.467Z,11.85
2019-05-05T16:43:41.431Z,11.87
2019-05-05T16:46:45.309Z,11.76
2019-05-05T16:49:49.539Z,11.75
2019-05-05T16:52:59.317Z,11.75
2019-05-05T16:56:04.533Z,11.84
2019-05-05T16:59:08.646Z,11.72
2019-05-05T17:02:13.929Z,11.44
2019-05-05T17:05:18.176Z,11.31
2019-05-05T17:08:24.449Z,11.21
2019-05-05T17:11:28.437Z,11.22
2019-05-05T17:14:40.401Z,11.14
2019-05-05T17:18:15.359Z,11.11
2019-05-05T17:21:22.127Z,10.96
2019-05-05T17:24:26.048Z,10.96
2019-05-05T17:27:30.691Z,11.03
2019-05-05T17:30:34.656Z,11.18
2019-05-05T17:33:38.660Z,11.29
2019-05-05T17:36:42.727Z,11.24
2019-05-05T17:39:55.388Z,11.13
2019-05-05T17:43:25.179Z,11.19
2019-05-05T17:46:26.957Z,11.18
2019-05-05T17:49:50.337Z,11.22
2019-05-05T17:53:11.548Z,11.08
2019-05-05T17:56:15.688Z,11.08
2019-05-05T17:59:19.568Z,11.19
2019-05-05T18:02:24.125Z,11.24
2019-05-05T18:05:46.222Z,11.07
2019-05-05T18:08:53.968Z,11.01
2019-05-05T18:12:26.513Z,10.96
2019-05-05T18:15:49.671Z,10.99
2019-05-05T18:18:54.849Z,10.94
2019-05-05T18:21:59.351Z,10.84
2019-05-05T18:25:03.809Z,10.77
2019-05-05T18:28:17.073Z,10.64
2019-05-05T18:31:13.925Z,10.54
2019-05-05T18:34:17.848Z,10.41
2019-05-05T18:37:24.040Z,10.35
2019-05-05T18:40:27.820Z,10.25
2019-05-05T18:43:38.929Z,10.27
2019-05-05T18:46:43.573Z,10.30
2019-05-05T18:49:48.081Z,10.08
2019-05-05T18:52:53.877Z,9.90
2019-05-05T18:55:57.672Z,9.84
2019-05-05T18:59:04.625Z,9.83
2019-05-05T19:02:17.346Z,9.80
2019-05-05T19:05:44.076Z,9.79
2019-05-05T19:08:54.459Z,9.71
2019-05-05T19:11:56.891Z,9.67
2019-05-05T19:15:01.212Z,9.62
2019-05-05T19:18:06.598Z,9.53
2019-05-05T19:21:25.437Z,9.44
2019-05-05T19:24:30.628Z,9.34
2019-05-05T19:27:34.790Z,9.23
2019-05-05T19:30:39.050Z,9.15
2019-05-05T19:33:43.026Z,8.95
2019-05-05T19:36:47.331Z,8.81
2019-05-05T19:39:51.449Z,8.64
2019-05-05T19:42:55.270Z,8.61
2019-05-05T19:45:59.510Z,8.57
2019-05-05T19:49:16.777Z,8.48
2019-05-05T19:52:21.133Z,8.60
2019-05-05T19:55:25.222Z,8.56
2019-05-05T19:58:29.201Z,8.59
2019-05-05T20:01:37.521Z,8.54
2019-05-05T20:04:38.765Z,8.45
2019-05-05T20:07:44.050Z,8.44
2019-05-05T20:10:47.868Z,8.42
2019-05-05T20:14:04.736Z,8.46
2019-05-05T20:17:15.822Z,8.43
2019-05-05T20:20:19.832Z,8.42
2019-05-05T20:23:24.412Z,8.23
2019-05-05T20:26:28.321Z,8.13
2019-05-05T20:29:35.048Z,7.96
2019-05-05T20:32:59.888Z,7.78
2019-05-05T20:36:14.512Z,7.85
2019-05-05T20:39:18.525Z,7.85
2019-05-05T20:42:22.686Z,7.76
2019-05-05T20:45:28.766Z,7.55
2019-05-05T20:48:35.091Z,7.43
2019-05-05T20:51:38.954Z,7.43
2019-05-05T20:54:44.088Z,7.46
2019-05-05T20:57:49.230Z,7.43
2019-05-05T21:00:54.911Z,7.35
2019-05-05T21:03:58.738Z,7.36
2019-05-05T21:07:04.402Z,7.53
2019-05-05T21:10:08.629Z,7.65
2019-05-05T21:13:14.370Z,7.68
2019-05-05T21:16:18.169Z,7.52
2019-05-05T21:19:22.225Z,7.53
2019-05-05T21:22:31.298Z,7.56
2019-05-05T21:25:37.326Z,7.66
2019-05-05T21:28:41.286Z,7.61
2019-05-05T21:31:45.326Z,7.64
2019-05-05T21:34:49.269Z,7.62
2019-05-05T21:37:54.362Z,7.56
2019-05-05T21:40:58.995Z,7.53
2019-05-05T21:44:03.754Z,7.57
2019-05-05T21:47:07.981Z,7.53
2019-05-05T21:50:14.472Z,7.49
2019-05-05T21:53:24.725Z,7.49
2019-05-05T21:56:37.188Z,7.54
2019-05-05T21:59:55.261Z,7.55
2019-05-05T22:02:47.936Z,7.58
2019-05-05T22:05:53.871Z,7.53
2019-05-05T22:08:57.871Z,7.49
2019-05-05T22:12:04.061Z,7.42
2019-05-05T22:15:07.901Z,7.36
2019-05-05T22:18:14.314Z,7.40
2019-05-05T22:21:35.687Z,7.45
2019-05-05T22:24:38.192Z,7.59
2019-05-05T22:27:44.006Z,7.73
2019-05-05T22:30:48.004Z,7.82
2019-05-05T22:33:51.923Z,7.86
2019-05-05T22:36:55.968Z,7.84
2019-05-05T22:40:00.291Z,7.87
2019-05-05T22:43:04.660Z,7.91
2019-05-05T22:46:08.495Z,7.86
2019-05-05T22:49:14.573Z,7.78
2019-05-05T22:52:18.490Z,7.79
2019-05-05T22:55:24.580Z,7.75
2019-05-05T22:58:28.717Z,7.75
2019-05-05T23:01:32.872Z,7.70
2019-05-05T23:04:47.712Z,7.68
2019-05-05T23:07:51.979Z,7.65
2019-05-05T23:10:55.807Z,7.63
2019-05-05T23:14:17.872Z,7.55
2019-05-05T23:17:40.815Z,7.43
2019-05-05T23:21:08.698Z,7.35
2019-05-05T23:24:34.509Z,7.30
2019-05-05T23:27:47.866Z,7.27
2019-05-05T23:30:54.562Z,7.30
2019-05-05T23:33:58.065Z,7.28
2019-05-05T23:37:04.227Z,7.32
2019-05-05T23:40:08.605Z,7.31
2019-05-05T23:43:13.954Z,7.30
2019-05-05T23:46:17.989Z,7.18
2019-05-05T23:49:24.027Z,7.15
2019-05-05T23:52:27.815Z,7.01
2019-05-05T23:55:31.887Z,6.96
2019-05-05T23:58:35.783Z,6.99
